createdAt,value
2023-01-26T00:01:35.554Z,98.51
2023-01-26T00:04:01.945Z,98.89
2023-01-26T00:06:28.359Z,99.44
2023-01-26T00:08:54.702Z,100.00
2023-01-26T00:11:21.117Z,100.00
2023-01-26T00:13:47.439Z,99.42
2023-01-26T00:16:13.817Z,98.75
2023-01-26T00:18:40.137Z,99.04
2023-01-26T00:21:06.471Z,99.39
2023-01-26T00:23:32.785Z,99.52
2023-01-26T00:25:59.126Z,99.40
2023-01-26T00:28:25.590Z,98.84
2023-01-26T00:30:51.965Z,99.59
2023-01-26T00:33:18.321Z,100.00
2023-01-26T00:35:44.802Z,99.75
2023-01-26T00:38:11.369Z,99.54
2023-01-26T00:40:37.715Z,99.59
2023-01-26T00:43:04.044Z,98.58
2023-01-26T00:45:30.452Z,98.60
2023-01-26T00:47:56.810Z,100.00
2023-01-26T00:50:23.196Z,99.96
2023-01-26T00:52:49.552Z,99.23
2023-01-26T00:55:15.865Z,99.98
2023-01-26T00:57:42.199Z,99.63
2023-01-26T01:00:09.797Z,99.54
2023-01-26T01:02:36.239Z,99.78
2023-01-26T01:05:02.566Z,99.18
2023-01-26T01:07:28.880Z,99.50
2023-01-26T01:09:55.234Z,100.00
2023-01-26T01:12:21.534Z,100.00
2023-01-26T01:14:47.859Z,100.00
2023-01-26T01:17:14.165Z,99.73
2023-01-26T01:19:40.493Z,99.01
2023-01-26T01:22:07.162Z,99.07
2023-01-26T01:24:35.249Z,99.34
2023-01-26T01:27:01.598Z,100.00
2023-01-26T01:29:27.934Z,100.00
2023-01-26T01:31:54.277Z,100.00
2023-01-26T01:34:20.593Z,100.00
2023-01-26T01:36:46.903Z,100.00
2023-01-26T01:39:13.272Z,100.00
2023-01-26T01:41:39.759Z,100.00
2023-01-26T01:44:06.071Z,100.00
2023-01-26T01:46:32.421Z,100.00
2023-01-26T01:48:58.867Z,100.00
2023-01-26T01:51:25.211Z,100.00
2023-01-26T01:53:51.551Z,100.00
2023-01-26T01:56:21.719Z,100.00
2023-01-26T01:58:48.025Z,100.00
2023-01-26T02:01:14.395Z,100.00
2023-01-26T02:03:40.778Z,100.00
2023-01-26T02:06:07.151Z,100.00
2023-01-26T02:08:33.502Z,100.00
2023-01-26T02:10:59.856Z,100.00
2023-01-26T02:13:26.176Z,100.00
2023-01-26T02:15:52.701Z,100.00
2023-01-26T02:18:19.101Z,100.00
2023-01-26T02:20:45.518Z,100.00
2023-01-26T02:23:11.830Z,100.00
2023-01-26T02:25:38.218Z,100.00
2023-01-26T02:28:04.537Z,100.00
2023-01-26T02:30:30.894Z,100.00
2023-01-26T02:32:57.195Z,100.00
2023-01-26T02:35:23.551Z,100.00
2023-01-26T02:37:49.894Z,100.00
2023-01-26T02:40:16.212Z,100.00
2023-01-26T02:42:44.435Z,100.00
2023-01-26T02:45:10.877Z,100.00
2023-01-26T02:47:37.184Z,100.00
2023-01-26T02:50:03.508Z,100.00
2023-01-26T02:52:31.060Z,100.00
2023-01-26T02:55:16.284Z,100.00
2023-01-26T02:57:42.671Z,100.00
2023-01-26T03:00:09.342Z,100.00
2023-01-26T03:02:35.924Z,100.00
2023-01-26T03:05:02.276Z,100.00
2023-01-26T03:07:28.601Z,100.00
2023-01-26T03:09:54.935Z,100.00
2023-01-26T03:12:21.274Z,100.00
2023-01-26T03:15:07.571Z,100.00
2023-01-26T03:17:33.897Z,100.00
2023-01-26T03:20:19.037Z,100.00
2023-01-26T03:23:03.962Z,99.80
2023-01-26T03:25:48.887Z,99.87
2023-01-26T03:28:15.228Z,99.24
2023-01-26T03:30:41.574Z,98.62
2023-01-26T03:33:07.913Z,98.16
2023-01-26T03:35:34.211Z,99.28
2023-01-26T03:38:00.569Z,99.82
2023-01-26T03:40:45.864Z,100.00
2023-01-26T03:43:31.021Z,99.83
2023-01-26T03:46:16.033Z,98.92
2023-01-26T03:49:01.316Z,100.00
2023-01-26T03:51:46.409Z,100.00
2023-01-26T03:54:31.350Z,100.00
2023-01-26T03:56:57.668Z,100.00
2023-01-26T03:59:38.103Z,100.00
2023-01-26T04:02:23.582Z,100.00
2023-01-26T04:05:08.491Z,100.00
2023-01-26T04:07:53.534Z,100.00
2023-01-26T04:10:20.023Z,100.00
2023-01-26T04:13:05.257Z,100.00
2023-01-26T04:15:50.523Z,100.00
2023-01-26T04:18:35.576Z,100.00
2023-01-26T04:21:20.563Z,100.00
2023-01-26T04:23:46.913Z,100.00
2023-01-26T04:26:13.261Z,100.00
2023-01-26T04:28:39.667Z,100.00
2023-01-26T04:31:06.064Z,100.00
2023-01-26T04:33:32.405Z,100.00
2023-01-26T04:35:58.719Z,100.00
2023-01-26T04:38:25.036Z,100.00
2023-01-26T04:40:51.340Z,100.00
2023-01-26T04:43:17.654Z,100.00
2023-01-26T04:45:44.006Z,100.00
2023-01-26T04:48:10.331Z,100.00
2023-01-26T04:50:36.645Z,100.00
2023-01-26T04:53:03.001Z,100.00
2023-01-26T04:55:29.304Z,100.00
2023-01-26T04:57:57.497Z,100.00
2023-01-26T05:00:23.803Z,100.00
2023-01-26T05:02:50.114Z,100.00
2023-01-26T05:05:16.455Z,100.00
2023-01-26T05:07:42.801Z,100.00
2023-01-26T05:10:09.308Z,100.00
2023-01-26T05:12:36.348Z,100.00
2023-01-26T05:15:02.673Z,100.00
2023-01-26T05:17:29.003Z,100.00
2023-01-26T05:19:55.335Z,100.00
2023-01-26T05:22:21.646Z,100.00
2023-01-26T05:24:47.974Z,100.00
2023-01-26T05:27:23.594Z,100.00
2023-01-26T05:29:50.039Z,100.00
2023-01-26T05:32:16.396Z,100.00
2023-01-26T05:34:42.695Z,100.00
2023-01-26T05:37:09.068Z,100.00
2023-01-26T05:39:35.417Z,100.00
2023-01-26T05:42:01.766Z,100.00
2023-01-26T05:44:29.417Z,100.00
2023-01-26T05:46:55.756Z,100.00
2023-01-26T05:49:22.064Z,100.00
2023-01-26T05:51:48.382Z,100.00
2023-01-26T05:54:14.697Z,100.00
2023-01-26T05:56:41.099Z,100.00
2023-01-26T05:59:07.445Z,100.00
2023-01-26T06:01:33.796Z,100.00
2023-01-26T06:04:00.201Z,100.00
2023-01-26T06:06:26.560Z,100.00
2023-01-26T06:08:52.877Z,100.00
2023-01-26T06:11:19.502Z,100.00
2023-01-26T06:13:45.842Z,100.00
2023-01-26T06:16:12.156Z,100.00
2023-01-26T06:18:38.511Z,100.00
2023-01-26T06:21:04.855Z,100.00
2023-01-26T06:23:31.256Z,100.00
2023-01-26T06:25:57.618Z,100.00
2023-01-26T06:28:23.933Z,100.00
2023-01-26T06:30:50.358Z,100.00
2023-01-26T06:33:16.729Z,100.00
2023-01-26T06:35:43.087Z,100.00
2023-01-26T06:38:09.447Z,100.00
2023-01-26T06:40:35.758Z,100.00
2023-01-26T06:43:02.182Z,100.00
2023-01-26T06:45:28.575Z,100.00
2023-01-26T06:47:54.900Z,100.00
2023-01-26T06:50:21.220Z,100.00
2023-01-26T06:52:47.588Z,100.00
2023-01-26T06:55:13.906Z,100.00
2023-01-26T06:57:40.228Z,100.00
2023-01-26T07:00:06.538Z,100.00
2023-01-26T07:02:32.924Z,100.00
2023-01-26T07:04:59.257Z,100.00
2023-01-26T07:07:25.565Z,100.00
2023-01-26T07:09:51.927Z,100.00
2023-01-26T07:12:18.236Z,100.00
2023-01-26T07:14:44.573Z,100.00
2023-01-26T07:17:10.939Z,100.00
2023-01-26T07:19:37.488Z,100.00
2023-01-26T07:22:03.814Z,100.00
2023-01-26T07:24:30.164Z,100.00
2023-01-26T07:26:56.547Z,100.00
2023-01-26T07:29:22.883Z,100.00
2023-01-26T07:31:49.360Z,100.00
2023-01-26T07:34:15.740Z,100.00
2023-01-26T07:36:42.123Z,100.00
2023-01-26T07:39:08.864Z,100.00
2023-01-26T07:41:35.271Z,100.00
2023-01-26T07:44:01.913Z,100.00
2023-01-26T07:46:28.303Z,100.00
2023-01-26T07:48:55.144Z,100.00
2023-01-26T07:51:21.448Z,100.00
2023-01-26T07:53:50.045Z,100.00
2023-01-26T07:56:16.409Z,100.00
2023-01-26T07:58:42.703Z,100.00
2023-01-26T08:01:09.036Z,100.00
2023-01-26T08:03:35.645Z,100.00
2023-01-26T08:06:02.197Z,100.00
2023-01-26T08:08:28.572Z,100.00
2023-01-26T08:10:54.901Z,100.00
2023-01-26T08:13:34.382Z,100.00
2023-01-26T08:16:01.896Z,100.00
2023-01-26T08:18:28.274Z,100.00
2023-01-26T08:20:54.635Z,100.00
2023-01-26T08:23:20.957Z,100.00
2023-01-26T08:25:47.457Z,100.00
2023-01-26T08:28:13.864Z,100.00
2023-01-26T08:30:40.278Z,100.00
2023-01-26T08:33:06.646Z,100.00
2023-01-26T08:35:33.151Z,100.00
2023-01-26T08:37:59.499Z,100.00
2023-01-26T08:40:26.064Z,100.00
2023-01-26T08:42:52.382Z,100.00
2023-01-26T08:45:18.716Z,100.00
2023-01-26T08:47:45.608Z,100.00
2023-01-26T08:50:12.283Z,100.00
2023-01-26T08:52:38.890Z,100.00
2023-01-26T08:55:05.270Z,100.00
2023-01-26T08:57:31.598Z,100.00
2023-01-26T08:59:57.922Z,100.00
2023-01-26T09:02:24.349Z,100.00
2023-01-26T09:04:50.789Z,100.00
2023-01-26T09:07:17.127Z,100.00
2023-01-26T09:09:43.592Z,100.00
2023-01-26T09:12:09.898Z,100.00
2023-01-26T09:14:36.277Z,100.00
2023-01-26T09:17:02.596Z,100.00
2023-01-26T09:19:30.935Z,100.00
2023-01-26T09:21:57.538Z,100.00
2023-01-26T09:24:23.947Z,100.00
2023-01-26T09:26:50.289Z,100.00
2023-01-26T09:29:16.711Z,100.00
2023-01-26T09:31:43.133Z,100.00
2023-01-26T09:34:09.538Z,100.00
2023-01-26T09:36:35.877Z,100.00
2023-01-26T09:39:02.303Z,100.00
2023-01-26T09:41:28.608Z,100.00
2023-01-26T09:43:54.958Z,100.00
2023-01-26T09:46:21.291Z,100.00
2023-01-26T09:48:47.934Z,100.00
2023-01-26T09:51:14.818Z,100.00
2023-01-26T09:53:41.190Z,100.00
2023-01-26T09:56:07.493Z,100.00
2023-01-26T09:58:33.940Z,100.00
2023-01-26T10:01:00.442Z,100.00
2023-01-26T10:03:27.157Z,100.00
2023-01-26T10:05:53.483Z,100.00
2023-01-26T10:08:19.868Z,100.00
2023-01-26T10:10:46.245Z,100.00
2023-01-26T10:13:12.557Z,100.00
2023-01-26T10:15:39.307Z,100.00
2023-01-26T10:18:05.689Z,100.00
2023-01-26T10:20:32.033Z,100.00
2023-01-26T10:22:58.365Z,100.00
2023-01-26T10:25:25.426Z,100.00
2023-01-26T10:27:51.799Z,100.00
2023-01-26T10:30:18.175Z,100.00
2023-01-26T10:32:44.655Z,100.00
2023-01-26T10:35:11.288Z,100.00
2023-01-26T10:37:37.768Z,100.00
2023-01-26T10:40:04.533Z,100.00
2023-01-26T10:42:30.883Z,100.00
2023-01-26T10:44:59.958Z,100.00
2023-01-26T10:47:26.573Z,100.00
2023-01-26T10:49:52.937Z,100.00
2023-01-26T10:52:19.302Z,100.00
2023-01-26T10:54:45.621Z,100.00
2023-01-26T10:57:11.933Z,100.00
2023-01-26T10:59:39.352Z,100.00
2023-01-26T11:02:05.671Z,100.00
2023-01-26T11:04:31.997Z,100.00
2023-01-26T11:06:58.429Z,100.00
2023-01-26T11:09:24.795Z,100.00
2023-01-26T11:11:51.329Z,100.00
2023-01-26T11:14:17.693Z,100.00
2023-01-26T11:16:44.473Z,100.00
2023-01-26T11:19:10.804Z,100.00
2023-01-26T11:21:37.215Z,100.00
2023-01-26T11:24:03.657Z,100.00
2023-01-26T11:26:30.825Z,100.00
2023-01-26T11:28:57.175Z,100.00
2023-01-26T11:31:23.522Z,100.00
2023-01-26T11:33:49.863Z,100.00
2023-01-26T11:36:16.252Z,100.00
2023-01-26T11:38:42.661Z,100.00
2023-01-26T11:41:08.995Z,100.00
2023-01-26T11:43:35.353Z,100.00
2023-01-26T11:46:02.136Z,100.00
2023-01-26T11:48:28.890Z,100.00
2023-01-26T11:50:55.199Z,100.00
2023-01-26T11:53:22.625Z,100.00
2023-01-26T11:55:48.930Z,100.00
2023-01-26T11:58:15.311Z,100.00
2023-01-26T12:00:41.690Z,100.00
2023-01-26T12:03:08.265Z,100.00
2023-01-26T12:05:34.655Z,100.00
2023-01-26T12:08:00.995Z,100.00
2023-01-26T12:10:27.446Z,100.00
2023-01-26T12:12:53.798Z,100.00
2023-01-26T12:15:20.153Z,100.00
2023-01-26T12:17:46.529Z,100.00
2023-01-26T12:20:12.857Z,100.00
2023-01-26T12:22:39.205Z,100.00
2023-01-26T12:25:19.008Z,100.00
2023-01-26T12:27:45.955Z,100.00
2023-01-26T12:30:12.267Z,100.00
2023-01-26T12:32:38.604Z,100.00
2023-01-26T12:35:04.931Z,100.00
2023-01-26T12:37:31.331Z,100.00
2023-01-26T12:39:57.641Z,100.00
2023-01-26T12:42:23.945Z,100.00
2023-01-26T12:44:50.265Z,100.00
2023-01-26T12:47:16.605Z,100.00
2023-01-26T12:49:43.035Z,100.00
2023-01-26T12:52:09.524Z,100.00
2023-01-26T12:54:35.888Z,100.00
2023-01-26T12:57:02.217Z,100.00
2023-01-26T12:59:47.277Z,100.00
2023-01-26T13:02:14.918Z,100.00
2023-01-26T13:04:41.317Z,100.00
2023-01-26T13:07:07.687Z,100.00
2023-01-26T13:09:34.402Z,100.00
2023-01-26T13:12:00.734Z,100.00
2023-01-26T13:14:27.147Z,100.00
2023-01-26T13:16:53.791Z,100.00
2023-01-26T13:19:20.095Z,100.00
2023-01-26T13:21:46.880Z,100.00
2023-01-26T13:24:13.241Z,100.00
2023-01-26T13:26:39.618Z,100.00
2023-01-26T13:29:05.933Z,100.00
2023-01-26T13:31:32.755Z,100.00
2023-01-26T13:33:59.237Z,100.00
2023-01-26T13:36:25.554Z,100.00
2023-01-26T13:38:51.875Z,99.89
2023-01-26T13:41:18.703Z,100.00
2023-01-26T13:43:45.032Z,97.99
2023-01-26T13:46:11.781Z,98.29
2023-01-26T13:48:38.145Z,99.56
2023-01-26T13:51:04.470Z,100.00
2023-01-26T13:53:30.843Z,100.00
2023-01-26T13:55:58.056Z,100.00
2023-01-26T13:58:24.429Z,100.00
2023-01-26T14:00:50.745Z,100.00
2023-01-26T14:03:17.058Z,100.00
2023-01-26T14:05:43.377Z,100.00
2023-01-26T14:08:09.707Z,100.00
2023-01-26T14:10:36.057Z,100.00
2023-01-26T14:13:03.887Z,100.00
2023-01-26T14:15:30.289Z,100.00
2023-01-26T14:17:56.604Z,100.00
2023-01-26T14:20:22.941Z,100.00
2023-01-26T14:22:49.284Z,100.00
2023-01-26T14:25:15.637Z,100.00
2023-01-26T14:27:41.964Z,100.00
2023-01-26T14:30:12.622Z,100.00
2023-01-26T14:32:39.208Z,100.00
2023-01-26T14:35:05.518Z,100.00
2023-01-26T14:37:31.887Z,100.00
2023-01-26T14:39:58.189Z,100.00
2023-01-26T14:42:24.532Z,100.00
2023-01-26T14:44:50.831Z,100.00
2023-01-26T14:47:17.194Z,100.00
2023-01-26T14:49:43.510Z,100.00
2023-01-26T14:52:09.822Z,100.00
2023-01-26T14:54:39.662Z,100.00
2023-01-26T14:57:07.171Z,100.00
2023-01-26T14:59:35.065Z,100.00
2023-01-26T15:02:01.471Z,100.00
2023-01-26T15:04:27.819Z,100.00
2023-01-26T15:06:54.139Z,100.00
2023-01-26T15:09:20.481Z,100.00
2023-01-26T15:12:05.614Z,98.81
2023-01-26T15:14:32.146Z,98.06
2023-01-26T15:16:58.466Z,97.50
2023-01-26T15:19:24.803Z,96.82
2023-01-26T15:21:51.153Z,96.12
2023-01-26T15:24:17.592Z,97.85
2023-01-26T15:26:43.973Z,98.52
2023-01-26T15:29:12.842Z,97.85
2023-01-26T15:31:39.891Z,97.94
2023-01-26T15:34:06.299Z,97.40
2023-01-26T15:36:32.707Z,96.68
2023-01-26T15:38:59.730Z,98.51
2023-01-26T15:41:26.062Z,97.30
2023-01-26T15:43:52.444Z,96.34
2023-01-26T15:46:18.847Z,97.29
2023-01-26T15:48:45.218Z,96.70
2023-01-26T15:51:11.581Z,96.56
2023-01-26T15:53:37.951Z,97.34
2023-01-26T15:56:04.279Z,98.56
2023-01-26T15:58:35.047Z,96.36
2023-01-26T16:01:01.424Z,96.61
2023-01-26T16:03:28.003Z,96.91
2023-01-26T16:05:54.312Z,96.72
2023-01-26T16:08:20.636Z,96.91
2023-01-26T16:10:47.014Z,95.69
2023-01-26T16:13:13.337Z,94.88
2023-01-26T16:15:39.856Z,96.48
2023-01-26T16:18:06.248Z,97.15
2023-01-26T16:20:32.576Z,96.66
2023-01-26T16:22:58.909Z,96.13
2023-01-26T16:25:25.388Z,96.99
2023-01-26T16:27:51.806Z,98.27
2023-01-26T16:30:19.257Z,98.03
2023-01-26T16:32:45.595Z,97.84
2023-01-26T16:35:12.372Z,98.24
2023-01-26T16:37:39.613Z,98.42
2023-01-26T16:40:07.047Z,98.11
2023-01-26T16:42:33.447Z,98.43
2023-01-26T16:44:59.878Z,98.61
2023-01-26T16:47:26.312Z,96.70
2023-01-26T16:49:52.666Z,97.07
2023-01-26T16:52:18.970Z,95.63
2023-01-26T16:54:48.300Z,96.03
2023-01-26T16:57:14.661Z,97.21
2023-01-26T16:59:41.077Z,97.67
2023-01-26T17:02:07.415Z,97.80
2023-01-26T17:04:33.791Z,96.62
2023-01-26T17:07:00.216Z,96.28
2023-01-26T17:09:26.767Z,96.05
2023-01-26T17:11:53.125Z,96.20
2023-01-26T17:14:19.464Z,94.90
2023-01-26T17:16:45.815Z,93.03
2023-01-26T17:19:12.164Z,94.14
2023-01-26T17:21:38.556Z,95.33
2023-01-26T17:24:06.925Z,95.42
2023-01-26T17:26:33.272Z,95.93
2023-01-26T17:28:59.635Z,95.93
2023-01-26T17:31:26.129Z,97.37
2023-01-26T17:33:52.544Z,97.23
2023-01-26T17:36:19.148Z,98.19
2023-01-26T17:38:45.493Z,99.28
2023-01-26T17:41:11.851Z,98.35
2023-01-26T17:43:38.178Z,97.38
2023-01-26T17:46:04.610Z,97.55
2023-01-26T17:48:31.100Z,96.65
2023-01-26T17:50:57.405Z,96.61
2023-01-26T17:53:24.534Z,96.83
2023-01-26T17:55:50.856Z,94.73
2023-01-26T17:58:17.184Z,95.96
2023-01-26T18:00:43.521Z,95.92
2023-01-26T18:03:09.866Z,97.83
2023-01-26T18:05:36.203Z,97.21
2023-01-26T18:08:02.534Z,97.30
2023-01-26T18:10:31.963Z,95.15
2023-01-26T18:12:58.354Z,95.01
2023-01-26T18:15:24.727Z,94.83
2023-01-26T18:17:51.079Z,92.74
2023-01-26T18:20:17.739Z,92.29
2023-01-26T18:22:44.079Z,92.51
2023-01-26T18:25:10.913Z,92.79
2023-01-26T18:27:37.861Z,92.33
2023-01-26T18:30:04.171Z,93.01
2023-01-26T18:32:30.475Z,94.54
2023-01-26T18:34:56.795Z,94.85
2023-01-26T18:37:23.108Z,92.47
2023-01-26T18:39:49.546Z,92.32
2023-01-26T18:42:15.900Z,91.06
2023-01-26T18:44:42.250Z,93.24
2023-01-26T18:47:08.634Z,93.98
2023-01-26T18:49:34.990Z,94.38
2023-01-26T18:52:01.295Z,95.81
2023-01-26T18:54:27.681Z,96.83
2023-01-26T18:56:54.237Z,98.14
2023-01-26T18:59:20.602Z,97.77
2023-01-26T19:01:46.994Z,97.61
2023-01-26T19:04:13.423Z,96.67
2023-01-26T19:06:39.795Z,97.48
2023-01-26T19:09:06.151Z,97.41
2023-01-26T19:11:32.492Z,98.82
2023-01-26T19:13:58.909Z,99.24
2023-01-26T19:16:25.334Z,99.23
2023-01-26T19:18:52.042Z,100.00
2023-01-26T19:21:21.850Z,100.00
2023-01-26T19:23:48.231Z,100.00
2023-01-26T19:26:14.600Z,100.00
2023-01-26T19:28:42.056Z,100.00
2023-01-26T19:31:08.460Z,100.00
2023-01-26T19:33:34.848Z,100.00
2023-01-26T19:36:01.252Z,100.00
2023-01-26T19:38:27.568Z,100.00
2023-01-26T19:40:53.936Z,100.00
2023-01-26T19:43:20.312Z,100.00
2023-01-26T19:45:46.687Z,100.00
2023-01-26T19:48:13.074Z,100.00
2023-01-26T19:50:40.445Z,100.00
2023-01-26T19:53:07.808Z,100.00
2023-01-26T19:55:34.870Z,100.00
2023-01-26T19:58:01.206Z,100.00
2023-01-26T20:00:27.555Z,100.00
2023-01-26T20:02:53.968Z,100.00
2023-01-26T20:05:20.282Z,100.00
2023-01-26T20:07:46.733Z,100.00
2023-01-26T20:10:13.141Z,100.00
2023-01-26T20:12:39.484Z,100.00
2023-01-26T20:15:05.824Z,100.00
2023-01-26T20:17:32.151Z,100.00
2023-01-26T20:19:58.485Z,100.00
2023-01-26T20:22:24.818Z,100.00
2023-01-26T20:24:51.176Z,100.00
2023-01-26T20:27:17.564Z,100.00
2023-01-26T20:29:43.929Z,100.00
2023-01-26T20:32:10.301Z,100.00
2023-01-26T20:34:36.609Z,100.00
2023-01-26T20:37:04.224Z,100.00
2023-01-26T20:39:30.631Z,100.00
2023-01-26T20:41:57.020Z,100.00
2023-01-26T20:44:23.355Z,100.00
2023-01-26T20:46:50.079Z,100.00
2023-01-26T20:49:16.508Z,100.00
2023-01-26T20:51:42.881Z,100.00
2023-01-26T20:54:09.205Z,100.00
2023-01-26T20:56:35.744Z,100.00
2023-01-26T20:59:02.223Z,100.00
2023-01-26T21:01:28.568Z,100.00
2023-01-26T21:03:55.034Z,100.00
2023-01-26T21:06:21.344Z,100.00
2023-01-26T21:08:47.672Z,100.00
2023-01-26T21:11:13.963Z,100.00
2023-01-26T21:13:43.358Z,100.00
2023-01-26T21:16:09.713Z,100.00
2023-01-26T21:18:36.042Z,100.00
2023-01-26T21:21:03.783Z,100.00
2023-01-26T21:23:30.131Z,100.00
2023-01-26T21:25:56.445Z,100.00
2023-01-26T21:28:22.752Z,100.00
2023-01-26T21:30:49.147Z,100.00
2023-01-26T21:33:15.507Z,100.00
2023-01-26T21:35:41.828Z,100.00
2023-01-26T21:38:08.144Z,100.00
2023-01-26T21:40:34.472Z,100.00
2023-01-26T21:43:00.819Z,100.00
2023-01-26T21:45:45.962Z,100.00
2023-01-26T21:48:31.267Z,100.00
2023-01-26T21:51:16.169Z,100.00
2023-01-26T21:53:42.559Z,100.00
2023-01-26T21:56:08.901Z,100.00
2023-01-26T21:58:54.061Z,100.00
2023-01-26T22:01:20.522Z,100.00
2023-01-26T22:03:46.960Z,100.00
2023-01-26T22:06:13.288Z,100.00
2023-01-26T22:08:39.626Z,100.00
2023-01-26T22:11:05.931Z,100.00
2023-01-26T22:13:32.248Z,100.00
2023-01-26T22:15:58.577Z,100.00
2023-01-26T22:18:24.901Z,100.00
2023-01-26T22:20:51.249Z,100.00
2023-01-26T22:23:17.605Z,100.00
2023-01-26T22:25:43.947Z,100.00
2023-01-26T22:28:10.356Z,100.00
2023-01-26T22:30:36.717Z,100.00
2023-01-26T22:33:03.038Z,100.00
2023-01-26T22:35:30.003Z,100.00
2023-01-26T22:37:56.642Z,100.00
2023-01-26T22:40:23.002Z,100.00
2023-01-26T22:42:49.322Z,100.00
2023-01-26T22:45:15.648Z,100.00
2023-01-26T22:47:41.977Z,100.00
2023-01-26T22:50:08.299Z,100.00
2023-01-26T22:52:34.683Z,100.00
2023-01-26T22:55:01.008Z,100.00
2023-01-26T22:57:27.339Z,100.00
2023-01-26T22:59:53.636Z,100.00
2023-01-26T23:02:21.213Z,100.00
2023-01-26T23:04:47.564Z,100.00
2023-01-26T23:07:13.879Z,100.00
2023-01-26T23:09:40.229Z,100.00
2023-01-26T23:12:06.557Z,100.00
2023-01-26T23:14:32.867Z,100.00
2023-01-26T23:16:59.167Z,100.00
2023-01-26T23:19:25.512Z,100.00
2023-01-26T23:21:51.815Z,100.00
2023-01-26T23:24:18.287Z,100.00
2023-01-26T23:26:44.653Z,100.00
2023-01-26T23:29:10.996Z,100.00
2023-01-26T23:31:37.582Z,100.00
2023-01-26T23:34:04.018Z,100.00
2023-01-26T23:36:30.366Z,100.00
2023-01-26T23:38:56.670Z,100.00
2023-01-26T23:41:23.034Z,100.00
2023-01-26T23:43:49.369Z,100.00
2023-01-26T23:46:15.718Z,100.00
2023-01-26T23:48:42.057Z,100.00
2023-01-26T23:51:08.664Z,100.00
2023-01-26T23:53:35.049Z,100.00
2023-01-26T23:56:01.407Z,100.00
2023-01-26T23:58:27.707Z,100.00
